NCAR-RAP Real-Time Weather Data

Output produced by METARs form (19 June 2019  11:24 UTC)
found at http://weather.rap.ucar.edu/surface/
 
KCAR 191054Z AUTO 17003KT 10SM CLR 14/10 A2984 RMK AO2 SLP105 T01390100
KCAR 190954Z AUTO 21003KT 10SM CLR 12/09 A2984 RMK AO2 SLP107 T01220089
KCAR 190854Z AUTO 00000KT 10SM CLR 11/09 A2983 RMK AO2 SLP105 T01110089 55000
KCAR 190754Z AUTO 19005KT 10SM CLR 12/09 A2983 RMK AO2 SLP104 T01220089
KCAR 190654Z AUTO 22003KT 10SM CLR 13/08 A2983 RMK AO2 SLP104 T01280083
KCAR 190554Z AUTO 23003KT 10SM CLR 13/08 A2984 RMK AO2 SLP105 T01330083 10217 20133 50000
KCAR 190454Z AUTO 22005KT 10SM CLR 13/08 A2984 RMK AO2 SLP107 T01330083 402500078
KCAR 190354Z AUTO 23003KT 10SM CLR 14/08 A2984 RMK AO2 SLP108 T01440083
KCAR 190254Z AUTO 22003KT 10SM CLR 16/08 A2984 RMK AO2 SLP105 T01610078 53003
KCAR 190154Z AUTO 23004KT 10SM CLR 18/08 A2983 RMK AO2 SLP104 T01780078
KCAR 190054Z AUTO 22004KT 10SM CLR 19/07 A2983 RMK AO2 SLP102 T01940072
KCAR 182354Z AUTO 00000KT 10SM CLR 21/08 A2983 RMK AO2 SLP102 T02110083 10250 20211 56007
KCAR 182254Z AUTO 00000KT 10SM SCT095 23/07 A2983 RMK AO2 SLP105 T02280067
KCAR 182154Z AUTO 23006KT 10SM CLR 23/06 A2984 RMK AO2 SLP106 T02330056
KCAR 182054Z AUTO VRB06KT 10SM CLR 24/07 A2985 RMK AO2 SLP110 T02440072 58013
KCAR 181954Z AUTO 25010KT 10SM SCT075 SCT095 24/07 A2986 RMK AO2 SLP116 T02440067
KCAR 181854Z AUTO 30004KT 10SM SCT090 24/06 A2987 RMK AO2 SLP119 T02440056
KCAR 181754Z AUTO 30005KT 10SM SCT075 23/06 A2989 RMK AO2 SLP123 T02330061 10233 20156 58019
KCAR 181654Z AUTO VRB06KT 10SM BKN070 22/06 A2991 RMK AO2 SLP130 T02220061
KCAR 181554Z AUTO 25010KT 10SM FEW070 22/07 A2993 RMK AO2 SLP138 T02170067
KCAR 181454Z AUTO 20007KT 160V230 10SM CLR 20/07 A2994 RMK AO2 SLP143 T02000067 58012
KCAR 181354Z AUTO 26005KT 10SM CLR 19/08 A2996 RMK AO2 SLP149 T01890083